sensor_id;sensor_type;location;lat;lon;timestamp;noise_LAeq;noise_LA_min;noise_LA_max;noise_LA01;noise_LA95
67308;Laerm;57662;51.436;5.978;2022-08-06T00:00:08;40.94;32.82;53.46;;
67308;Laerm;57662;51.436;5.978;2022-08-06T00:00:19;35.86;32.63;42.53;;
67308;Laerm;57662;51.436;5.978;2022-08-06T00:00:29;34.41;33.08;41.66;;
67308;Laerm;57662;51.436;5.978;2022-08-06T00:00:39;34.18;32.68;35.69;;
67308;Laerm;57662;51.436;5.978;2022-08-06T00:00:51;34.98;32.97;40.97;;
67308;Laerm;57662;51.436;5.978;2022-08-06T00:01:02;34.97;32.94;43.98;;
67308;Laerm;57662;51.436;5.978;2022-08-06T00:01:12;35.10;32.91;40.92;;
67308;Laerm;57662;51.436;5.978;2022-08-06T00:01:22;34.64;32.95;40.14;;
67308;Laerm;57662;51.436;5.978;2022-08-06T00:01:32;34.64;32.93;41.57;;
67308;Laerm;57662;51.436;5.978;2022-08-06T00:01:43;34.70;32.70;39.10;;
67308;Laerm;57662;51.436;5.978;2022-08-06T00:01:53;34.66;32.78;39.80;;
67308;Laerm;57662;51.436;5.978;2022-08-06T00:02:04;34.69;33.18;39.13;;
67308;Laerm;57662;51.436;5.978;2022-08-06T00:02:14;34.85;32.93;41.27;;
67308;Laerm;57662;51.436;5.978;2022-08-06T00:02:25;34.12;32.62;35.90;;
67308;Laerm;57662;51.436;5.978;2022-08-06T00:02:36;34.54;32.94;41.88;;
67308;Laerm;57662;51.436;5.978;2022-08-06T00:02:46;36.22;32.89;45.42;;
67308;Laerm;57662;51.436;5.978;2022-08-06T00:02:56;35.88;33.39;44.61;;
67308;Laerm;57662;51.436;5.978;2022-08-06T00:03:07;37.06;33.12;48.32;;
67308;Laerm;57662;51.436;5.978;2022-08-06T00:03:17;34.88;32.74;41.95;;
67308;Laerm;57662;51.436;5.978;2022-08-06T00:03:28;35.57;33.01;42.76;;
67308;Laerm;57662;51.436;5.978;2022-08-06T00:03:38;35.08;32.51;41.88;;
67308;Laerm;57662;51.436;5.978;2022-08-06T00:03:48;34.16;33.03;35.31;;
67308;Laerm;57662;51.436;5.978;2022-08-06T00:04:00;34.01;32.52;35.45;;
67308;Laerm;57662;51.436;5.978;2022-08-06T00:04:10;34.34;33.02;35.58;;
67308;Laerm;57662;51.436;5.978;2022-08-06T00:04:20;34.43;32.75;42.51;;
67308;Laerm;57662;51.436;5.978;2022-08-06T00:04:30;34.38;33.13;37.88;;
67308;Laerm;57662;51.436;5.978;2022-08-06T00:04:41;34.26;33.01;36.09;;
67308;Laerm;57662;51.436;5.978;2022-08-06T00:04:51;34.35;32.98;35.79;;
67308;Laerm;57662;51.436;5.978;2022-08-06T00:05:02;34.46;33.18;37.23;;
67308;Laerm;57662;51.436;5.978;2022-08-06T00:05:13;35.13;33.29;40.37;;
67308;Laerm;57662;51.436;5.978;2022-08-06T00:05:23;34.52;32.72;40.25;;
67308;Laerm;57662;51.436;5.978;2022-08-06T00:05:34;34.20;32.87;37.47;;
67308;Laerm;57662;51.436;5.978;2022-08-06T00:05:44;34.13;32.83;36.47;;
67308;Laerm;57662;51.436;5.978;2022-08-06T00:05:55;34.29;32.65;38.29;;
67308;Laerm;57662;51.436;5.978;2022-08-06T00:06:05;34.03;32.79;35.21;;
67308;Laerm;57662;51.436;5.978;2022-08-06T00:06:15;34.05;32.45;39.28;;
67308;Laerm;57662;51.436;5.978;2022-08-06T00:06:26;34.17;32.60;36.30;;
67308;Laerm;57662;51.436;5.978;2022-08-06T00:06:36;33.94;32.45;35.32;;
67308;Laerm;57662;51.436;5.978;2022-08-06T00:06:47;35.20;32.88;48.57;;
67308;Laerm;57662;51.436;5.978;2022-08-06T00:06:57;34.35;32.91;35.63;;
67308;Laerm;57662;51.436;5.978;2022-08-06T00:07:07;34.06;32.69;37.90;;
67308;Laerm;57662;51.436;5.978;2022-08-06T00:07:17;34.17;32.75;35.47;;
67308;Laerm;57662;51.436;5.978;2022-08-06T00:07:28;34.28;32.60;36.87;;
67308;Laerm;57662;51.436;5.978;2022-08-06T00:07:38;34.23;32.80;35.62;;
67308;Laerm;57662;51.436;5.978;2022-08-06T00:07:48;34.23;33.02;35.47;;
67308;Laerm;57662;51.436;5.978;2022-08-06T00:07:59;34.25;33.03;35.63;;
67308;Laerm;57662;51.436;5.978;2022-08-06T00:08:09;34.22;32.81;35.25;;
67308;Laerm;57662;51.436;5.978;2022-08-06T00:08:19;34.23;32.97;35.45;;
67308;Laerm;57662;51.436;5.978;2022-08-06T00:08:30;34.46;32.82;36.47;;
67308;Laerm;57662;51.436;5.978;2022-08-06T00:08:40;34.38;33.19;35.71;;
67308;Laerm;57662;51.436;5.978;2022-08-06T00:08:50;34.31;32.58;35.71;;
67308;Laerm;57662;51.436;5.978;2022-08-06T00:09:00;34.13;32.84;35.29;;
67308;Laerm;57662;51.436;5.978;2022-08-06T00:09:11;34.24;32.89;39.97;;
67308;Laerm;57662;51.436;5.978;2022-08-06T00:09:21;34.08;32.83;35.43;;
67308;Laerm;57662;51.436;5.978;2022-08-06T00:09:32;34.08;32.66;37.97;;
67308;Laerm;57662;51.436;5.978;2022-08-06T00:09:43;34.00;32.78;35.18;;
67308;Laerm;57662;51.436;5.978;2022-08-06T00:09:53;34.27;32.68;35.99;;
67308;Laerm;57662;51.436;5.978;2022-08-06T00:10:04;34.28;32.53;36.73;;
67308;Laerm;57662;51.436;5.978;2022-08-06T00:10:17;34.21;32.93;35.60;;
67308;Laerm;57662;51.436;5.978;2022-08-06T00:10:28;34.20;32.93;35.75;;
67308;Laerm;57662;51.436;5.978;2022-08-06T00:10:38;34.21;32.77;35.65;;
67308;Laerm;57662;51.436;5.978;2022-08-06T00:10:49;37.33;32.68;47.21;;
67308;Laerm;57662;51.436;5.978;2022-08-06T00:10:59;34.34;32.90;37.52;;
67308;Laerm;57662;51.436;5.978;2022-08-06T00:11:09;34.93;32.90;47.62;;
67308;Laerm;57662;51.436;5.978;2022-08-06T00:11:19;34.16;32.74;35.63;;
67308;Laerm;57662;51.436;5.978;2022-08-06T00:11:30;34.22;32.69;35.61;;
67308;Laerm;57662;51.436;5.978;2022-08-06T00:11:40;34.06;32.34;35.71;;
67308;Laerm;57662;51.436;5.978;2022-08-06T00:11:51;34.02;32.80;35.15;;
67308;Laerm;57662;51.436;5.978;2022-08-06T00:12:02;34.13;32.11;35.62;;
67308;Laerm;57662;51.436;5.978;2022-08-06T00:12:12;34.36;32.90;35.76;;
67308;Laerm;57662;51.436;5.978;2022-08-06T00:12:23;34.32;32.88;35.48;;
67308;Laerm;57662;51.436;5.978;2022-08-06T00:12:33;34.33;33.03;35.69;;
67308;Laerm;57662;51.436;5.978;2022-08-06T00:12:45;34.23;32.91;35.66;;
67308;Laerm;57662;51.436;5.978;2022-08-06T00:12:56;34.54;33.08;35.72;;
67308;Laerm;57662;51.436;5.978;2022-08-06T00:13:06;34.33;33.27;35.64;;
67308;Laerm;57662;51.436;5.978;2022-08-06T00:13:16;35.09;33.59;36.67;;
67308;Laerm;57662;51.436;5.978;2022-08-06T00:13:28;38.17;33.23;45.61;;
67308;Laerm;57662;51.436;5.978;2022-08-06T00:13:39;36.70;33.79;38.93;;
67308;Laerm;57662;51.436;5.978;2022-08-06T00:13:49;34.40;32.99;36.00;;
67308;Laerm;57662;51.436;5.978;2022-08-06T00:13:59;34.27;33.18;35.65;;
67308;Laerm;57662;51.436;5.978;2022-08-06T00:14:10;34.37;32.97;35.81;;
67308;Laerm;57662;51.436;5.978;2022-08-06T00:14:20;34.22;32.78;35.37;;
67308;Laerm;57662;51.436;5.978;2022-08-06T00:14:30;34.14;32.90;35.99;;
67308;Laerm;57662;51.436;5.978;2022-08-06T00:14:41;34.15;32.66;35.60;;
67308;Laerm;57662;51.436;5.978;2022-08-06T00:14:51;34.16;32.97;35.88;;
67308;Laerm;57662;51.436;5.978;2022-08-06T00:15:05;34.24;32.61;35.67;;
67308;Laerm;57662;51.436;5.978;2022-08-06T00:15:16;33.99;32.56;35.45;;
67308;Laerm;57662;51.436;5.978;2022-08-06T00:15:29;33.97;32.46;35.26;;
67308;Laerm;57662;51.436;5.978;2022-08-06T00:15:40;34.03;32.97;35.53;;
67308;Laerm;57662;51.436;5.978;2022-08-06T00:15:50;34.09;32.61;35.18;;
67308;Laerm;57662;51.436;5.978;2022-08-06T00:16:00;34.33;33.06;36.23;;
67308;Laerm;57662;51.436;5.978;2022-08-06T00:16:10;34.32;33.00;36.29;;
67308;Laerm;57662;51.436;5.978;2022-08-06T00:16:21;34.18;33.04;35.67;;
67308;Laerm;57662;51.436;5.978;2022-08-06T00:16:31;34.05;32.83;35.38;;
67308;Laerm;57662;51.436;5.978;2022-08-06T00:16:41;33.95;32.83;35.13;;
67308;Laerm;57662;51.436;5.978;2022-08-06T00:16:51;34.22;32.92;36.12;;
67308;Laerm;57662;51.436;5.978;2022-08-06T00:17:02;34.06;32.74;35.55;;
67308;Laerm;57662;51.436;5.978;2022-08-06T00:17:12;34.10;32.73;35.57;;
67308;Laerm;57662;51.436;5.978;2022-08-06T00:17:22;34.22;32.86;35.87;;
67308;Laerm;57662;51.436;5.978;2022-08-06T00:17:33;34.08;32.77;35.65;;
67308;Laerm;57662;51.436;5.978;2022-08-06T00:17:44;34.09;32.64;35.27;;
67308;Laerm;57662;51.436;5.978;2022-08-06T00:17:54;34.14;32.87;35.37;;
67308;Laerm;57662;51.436;5.978;2022-08-06T00:18:05;33.94;32.38;35.20;;
67308;Laerm;57662;51.436;5.978;2022-08-06T00:18:15;33.98;32.85;35.61;;
67308;Laerm;57662;51.436;5.978;2022-08-06T00:18:25;34.12;33.04;35.55;;
67308;Laerm;57662;51.436;5.978;2022-08-06T00:18:35;34.32;32.99;36.24;;
67308;Laerm;57662;51.436;5.978;2022-08-06T00:18:46;34.06;32.83;35.57;;
67308;Laerm;57662;51.436;5.978;2022-08-06T00:18:56;34.02;32.71;36.26;;
67308;Laerm;57662;51.436;5.978;2022-08-06T00:19:06;33.90;32.74;35.95;;
67308;Laerm;57662;51.436;5.978;2022-08-06T00:19:17;33.94;32.75;35.94;;
67308;Laerm;57662;51.436;5.978;2022-08-06T00:19:27;33.90;32.38;35.45;;
67308;Laerm;57662;51.436;5.978;2022-08-06T00:19:37;34.20;33.03;35.50;;
67308;Laerm;57662;51.436;5.978;2022-08-06T00:19:47;34.15;32.98;35.34;;
67308;Laerm;57662;51.436;5.978;2022-08-06T00:19:58;34.43;32.76;36.13;;
67308;Laerm;57662;51.436;5.978;2022-08-06T00:20:08;34.86;33.06;36.78;;
67308;Laerm;57662;51.436;5.978;2022-08-06T00:20:19;34.53;33.05;36.56;;
67308;Laerm;57662;51.436;5.978;2022-08-06T00:20:29;35.28;33.34;42.30;;
67308;Laerm;57662;51.436;5.978;2022-08-06T00:20:39;34.93;33.76;36.23;;
67308;Laerm;57662;51.436;5.978;2022-08-06T00:20:50;34.40;32.78;36.31;;
67308;Laerm;57662;51.436;5.978;2022-08-06T00:21:00;34.20;33.06;35.35;;
67308;Laerm;57662;51.436;5.978;2022-08-06T00:21:10;34.27;32.78;35.75;;
67308;Laerm;57662;51.436;5.978;2022-08-06T00:21:21;34.25;32.61;35.87;;
67308;Laerm;57662;51.436;5.978;2022-08-06T00:21:31;34.06;32.66;35.33;;
67308;Laerm;57662;51.436;5.978;2022-08-06T00:21:41;33.97;32.83;35.21;;
67308;Laerm;57662;51.436;5.978;2022-08-06T00:21:52;33.99;32.58;35.50;;
67308;Laerm;57662;51.436;5.978;2022-08-06T00:22:02;34.10;32.83;35.47;;
67308;Laerm;57662;51.436;5.978;2022-08-06T00:22:13;34.22;32.74;35.65;;
67308;Laerm;57662;51.436;5.978;2022-08-06T00:22:23;34.24;32.68;35.27;;
67308;Laerm;57662;51.436;5.978;2022-08-06T00:22:33;33.99;32.49;35.54;;
67308;Laerm;57662;51.436;5.978;2022-08-06T00:22:43;34.12;32.88;35.37;;
67308;Laerm;57662;51.436;5.978;2022-08-06T00:22:54;34.60;32.76;38.81;;
67308;Laerm;57662;51.436;5.978;2022-08-06T00:23:04;34.84;32.97;39.85;;
67308;Laerm;57662;51.436;5.978;2022-08-06T00:23:14;34.04;32.56;35.12;;
67308;Laerm;57662;51.436;5.978;2022-08-06T00:23:24;34.46;33.13;35.71;;
67308;Laerm;57662;51.436;5.978;2022-08-06T00:23:35;34.50;33.34;35.85;;
67308;Laerm;57662;51.436;5.978;2022-08-06T00:23:45;34.56;33.27;36.02;;
67308;Laerm;57662;51.436;5.978;2022-08-06T00:23:55;34.69;33.43;35.86;;
67308;Laerm;57662;51.436;5.978;2022-08-06T00:24:06;34.43;32.96;35.72;;
67308;Laerm;57662;51.436;5.978;2022-08-06T00:24:16;34.53;32.65;35.72;;
67308;Laerm;57662;51.436;5.978;2022-08-06T00:24:26;34.94;33.62;36.73;;
67308;Laerm;57662;51.436;5.978;2022-08-06T00:24:37;37.19;33.71;44.06;;
67308;Laerm;57662;51.436;5.978;2022-08-06T00:24:47;34.67;33.32;36.42;;
67308;Laerm;57662;51.436;5.978;2022-08-06T00:24:57;34.36;32.99;35.69;;
67308;Laerm;57662;51.436;5.978;2022-08-06T00:25:08;34.39;33.18;35.83;;
67308;Laerm;57662;51.436;5.978;2022-08-06T00:25:20;34.30;33.19;35.39;;
67308;Laerm;57662;51.436;5.978;2022-08-06T00:25:30;34.22;32.97;35.52;;
67308;Laerm;57662;51.436;5.978;2022-08-06T00:25:40;34.34;32.91;35.59;;
67308;Laerm;57662;51.436;5.978;2022-08-06T00:25:51;34.12;32.76;35.19;;
67308;Laerm;57662;51.436;5.978;2022-08-06T00:26:02;34.25;32.55;35.41;;
67308;Laerm;57662;51.436;5.978;2022-08-06T00:26:12;34.26;32.97;35.76;;
67308;Laerm;57662;51.436;5.978;2022-08-06T00:26:22;34.25;32.84;35.51;;
67308;Laerm;57662;51.436;5.978;2022-08-06T00:26:34;34.53;33.16;36.15;;
67308;Laerm;57662;51.436;5.978;2022-08-06T00:26:44;34.53;33.19;35.82;;
67308;Laerm;57662;51.436;5.978;2022-08-06T00:26:54;34.47;33.23;35.62;;
67308;Laerm;57662;51.436;5.978;2022-08-06T00:27:05;34.83;32.73;36.25;;
67308;Laerm;57662;51.436;5.978;2022-08-06T00:27:15;34.25;33.05;35.51;;
67308;Laerm;57662;51.436;5.978;2022-08-06T00:27:25;34.43;32.88;35.67;;
67308;Laerm;57662;51.436;5.978;2022-08-06T00:27:36;34.15;33.00;35.54;;
67308;Laerm;57662;51.436;5.978;2022-08-06T00:27:46;34.30;32.47;35.59;;
67308;Laerm;57662;51.436;5.978;2022-08-06T00:27:56;34.08;32.77;35.56;;
67308;Laerm;57662;51.436;5.978;2022-08-06T00:28:06;34.10;32.82;35.43;;
67308;Laerm;57662;51.436;5.978;2022-08-06T00:28:17;34.25;33.00;35.29;;
67308;Laerm;57662;51.436;5.978;2022-08-06T00:28:27;34.09;32.82;35.34;;
67308;Laerm;57662;51.436;5.978;2022-08-06T00:28:37;34.36;32.96;35.52;;
67308;Laerm;57662;51.436;5.978;2022-08-06T00:28:47;34.14;32.54;35.30;;
67308;Laerm;57662;51.436;5.978;2022-08-06T00:28:58;34.27;32.72;36.17;;
67308;Laerm;57662;51.436;5.978;2022-08-06T00:29:08;34.18;33.00;35.18;;
67308;Laerm;57662;51.436;5.978;2022-08-06T00:29:18;34.19;32.90;35.79;;
67308;Laerm;57662;51.436;5.978;2022-08-06T00:29:28;34.21;32.86;35.40;;
67308;Laerm;57662;51.436;5.978;2022-08-06T00:29:39;34.58;33.18;36.19;;
67308;Laerm;57662;51.436;5.978;2022-08-06T00:29:49;35.45;33.65;37.41;;
67308;Laerm;57662;51.436;5.978;2022-08-06T00:29:59;35.60;34.10;37.71;;
67308;Laerm;57662;51.436;5.978;2022-08-06T00:30:10;36.41;34.36;40.26;;
67308;Laerm;57662;51.436;5.978;2022-08-06T00:30:20;35.51;34.08;37.19;;
67308;Laerm;57662;51.436;5.978;2022-08-06T00:30:31;35.32;33.58;37.51;;
67308;Laerm;57662;51.436;5.978;2022-08-06T00:30:41;35.27;33.72;37.27;;
67308;Laerm;57662;51.436;5.978;2022-08-06T00:30:52;35.07;33.06;37.57;;
67308;Laerm;57662;51.436;5.978;2022-08-06T00:31:03;34.75;33.47;36.86;;
67308;Laerm;57662;51.436;5.978;2022-08-06T00:31:13;37.90;33.26;50.84;;
67308;Laerm;57662;51.436;5.978;2022-08-06T00:31:23;34.53;33.07;35.82;;
67308;Laerm;57662;51.436;5.978;2022-08-06T00:31:34;34.85;32.92;36.91;;
67308;Laerm;57662;51.436;5.978;2022-08-06T00:31:44;35.36;33.74;37.51;;
67308;Laerm;57662;51.436;5.978;2022-08-06T00:31:54;34.39;32.67;35.66;;
67308;Laerm;57662;51.436;5.978;2022-08-06T00:32:05;34.34;33.28;35.49;;
67308;Laerm;57662;51.436;5.978;2022-08-06T00:32:15;34.06;32.86;35.39;;
67308;Laerm;57662;51.436;5.978;2022-08-06T00:32:26;34.31;32.58;35.66;;
67308;Laerm;57662;51.436;5.978;2022-08-06T00:32:36;34.26;32.83;35.42;;
67308;Laerm;57662;51.436;5.978;2022-08-06T00:32:46;34.05;32.49;35.29;;
67308;Laerm;57662;51.436;5.978;2022-08-06T00:32:57;34.25;32.85;35.64;;
67308;Laerm;57662;51.436;5.978;2022-08-06T00:33:07;33.99;32.88;35.53;;
67308;Laerm;57662;51.436;5.978;2022-08-06T00:33:18;34.23;32.78;35.38;;
67308;Laerm;57662;51.436;5.978;2022-08-06T00:33:28;33.96;32.98;35.24;;
67308;Laerm;57662;51.436;5.978;2022-08-06T00:33:39;33.99;32.83;35.11;;
67308;Laerm;57662;51.436;5.978;2022-08-06T00:33:49;34.27;32.99;35.86;;
67308;Laerm;57662;51.436;5.978;2022-08-06T00:33:59;34.41;32.80;35.76;;
67308;Laerm;57662;51.436;5.978;2022-08-06T00:34:11;34.05;32.63;35.76;;
67308;Laerm;57662;51.436;5.978;2022-08-06T00:34:21;34.08;32.69;35.25;;
67308;Laerm;57662;51.436;5.978;2022-08-06T00:34:32;34.00;32.95;35.68;;
67308;Laerm;57662;51.436;5.978;2022-08-06T00:34:42;33.95;32.58;35.16;;
67308;Laerm;57662;51.436;5.978;2022-08-06T00:34:52;34.13;32.82;35.53;;
67308;Laerm;57662;51.436;5.978;2022-08-06T00:35:03;34.16;32.74;35.46;;
67308;Laerm;57662;51.436;5.978;2022-08-06T00:35:14;34.09;32.62;35.51;;
67308;Laerm;57662;51.436;5.978;2022-08-06T00:35:24;34.14;32.84;35.71;;
67308;Laerm;57662;51.436;5.978;2022-08-06T00:35:34;33.75;32.31;35.26;;
67308;Laerm;57662;51.436;5.978;2022-08-06T00:35:44;33.96;32.59;35.21;;
67308;Laerm;57662;51.436;5.978;2022-08-06T00:35:55;34.08;33.02;35.52;;
67308;Laerm;57662;51.436;5.978;2022-08-06T00:36:05;34.18;32.78;35.33;;
67308;Laerm;57662;51.436;5.978;2022-08-06T00:36:15;34.17;32.26;35.63;;
67308;Laerm;57662;51.436;5.978;2022-08-06T00:36:26;35.00;33.47;39.97;;
67308;Laerm;57662;51.436;5.978;2022-08-06T00:36:36;38.71;33.65;45.66;;
67308;Laerm;57662;51.436;5.978;2022-08-06T00:36:46;34.45;33.09;35.72;;
67308;Laerm;57662;51.436;5.978;2022-08-06T00:36:57;34.31;33.07;35.64;;
67308;Laerm;57662;51.436;5.978;2022-08-06T00:37:07;34.82;33.08;36.65;;
67308;Laerm;57662;51.436;5.978;2022-08-06T00:37:17;35.53;33.44;38.48;;
67308;Laerm;57662;51.436;5.978;2022-08-06T00:37:27;34.88;33.20;36.18;;
67308;Laerm;57662;51.436;5.978;2022-08-06T00:37:39;34.91;33.47;36.31;;
67308;Laerm;57662;51.436;5.978;2022-08-06T00:37:49;39.47;33.49;46.28;;
67308;Laerm;57662;51.436;5.978;2022-08-06T00:37:59;43.96;37.73;47.37;;
67308;Laerm;57662;51.436;5.978;2022-08-06T00:38:09;41.66;37.61;44.45;;
67308;Laerm;57662;51.436;5.978;2022-08-06T00:38:20;43.17;39.61;46.05;;
67308;Laerm;57662;51.436;5.978;2022-08-06T00:38:30;47.86;40.42;55.74;;
67308;Laerm;57662;51.436;5.978;2022-08-06T00:38:41;66.85;55.56;69.58;;
67308;Laerm;57662;51.436;5.978;2022-08-06T00:38:51;67.48;64.00;71.19;;
67308;Laerm;57662;51.436;5.978;2022-08-06T00:39:03;55.99;42.12;65.78;;
67308;Laerm;57662;51.436;5.978;2022-08-06T00:39:14;39.83;35.71;45.42;;
67308;Laerm;57662;51.436;5.978;2022-08-06T00:39:24;35.22;33.48;37.44;;
67308;Laerm;57662;51.436;5.978;2022-08-06T00:39:34;34.61;33.30;36.07;;
67308;Laerm;57662;51.436;5.978;2022-08-06T00:39:44;34.32;33.03;35.61;;
67308;Laerm;57662;51.436;5.978;2022-08-06T00:39:55;34.29;32.64;35.35;;
67308;Laerm;57662;51.436;5.978;2022-08-06T00:40:05;34.14;32.93;35.35;;
67308;Laerm;57662;51.436;5.978;2022-08-06T00:40:16;34.24;32.94;35.50;;
67308;Laerm;57662;51.436;5.978;2022-08-06T00:40:28;34.32;32.97;35.41;;
67308;Laerm;57662;51.436;5.978;2022-08-06T00:40:39;34.22;32.92;35.71;;
67308;Laerm;57662;51.436;5.978;2022-08-06T00:40:50;33.85;32.59;35.34;;
67308;Laerm;57662;51.436;5.978;2022-08-06T00:41:01;34.18;32.92;35.46;;
67308;Laerm;57662;51.436;5.978;2022-08-06T00:41:11;34.21;32.95;36.34;;
67308;Laerm;57662;51.436;5.978;2022-08-06T00:41:24;34.12;32.74;35.33;;
67308;Laerm;57662;51.436;5.978;2022-08-06T00:41:34;33.99;32.73;35.30;;
67308;Laerm;57662;51.436;5.978;2022-08-06T00:41:45;33.92;32.71;35.06;;
67308;Laerm;57662;51.436;5.978;2022-08-06T00:41:55;34.07;32.69;35.49;;
67308;Laerm;57662;51.436;5.978;2022-08-06T00:42:06;33.98;32.42;35.31;;
67308;Laerm;57662;51.436;5.978;2022-08-06T00:42:16;34.03;32.62;35.17;;
67308;Laerm;57662;51.436;5.978;2022-08-06T00:42:27;34.10;32.68;35.16;;
67308;Laerm;57662;51.436;5.978;2022-08-06T00:42:37;34.17;33.10;35.62;;
67308;Laerm;57662;51.436;5.978;2022-08-06T00:42:49;34.16;32.84;35.64;;
67308;Laerm;57662;51.436;5.978;2022-08-06T00:43:00;33.95;32.71;35.47;;
67308;Laerm;57662;51.436;5.978;2022-08-06T00:43:12;34.51;33.27;35.88;;
67308;Laerm;57662;51.436;5.978;2022-08-06T00:43:22;34.62;33.09;36.74;;
67308;Laerm;57662;51.436;5.978;2022-08-06T00:43:32;35.74;33.89;38.62;;
67308;Laerm;57662;51.436;5.978;2022-08-06T00:43:43;35.37;33.58;38.00;;
67308;Laerm;57662;51.436;5.978;2022-08-06T00:43:53;34.75;32.84;36.73;;
67308;Laerm;57662;51.436;5.978;2022-08-06T00:44:04;35.00;33.12;36.82;;
67308;Laerm;57662;51.436;5.978;2022-08-06T00:44:15;34.90;33.12;38.05;;
67308;Laerm;57662;51.436;5.978;2022-08-06T00:44:25;34.75;33.23;36.75;;
67308;Laerm;57662;51.436;5.978;2022-08-06T00:44:35;34.45;32.96;36.00;;
67308;Laerm;57662;51.436;5.978;2022-08-06T00:44:46;34.72;32.99;37.75;;
67308;Laerm;57662;51.436;5.978;2022-08-06T00:44:56;34.79;33.23;36.47;;
67308;Laerm;57662;51.436;5.978;2022-08-06T00:45:06;34.25;32.62;35.41;;
67308;Laerm;57662;51.436;5.978;2022-08-06T00:45:18;34.06;32.10;35.68;;
67308;Laerm;57662;51.436;5.978;2022-08-06T00:45:31;34.49;33.01;40.69;;
67308;Laerm;57662;51.436;5.978;2022-08-06T00:45:41;34.43;32.93;40.72;;
67308;Laerm;57662;51.436;5.978;2022-08-06T00:45:52;34.09;32.74;35.26;;
67308;Laerm;57662;51.436;5.978;2022-08-06T00:46:02;34.20;32.78;35.42;;
67308;Laerm;57662;51.436;5.978;2022-08-06T00:46:12;34.03;33.00;35.23;;
67308;Laerm;57662;51.436;5.978;2022-08-06T00:46:22;33.98;32.70;35.46;;
67308;Laerm;57662;51.436;5.978;2022-08-06T00:46:33;34.11;32.83;35.47;;
67308;Laerm;57662;51.436;5.978;2022-08-06T00:46:43;34.06;32.79;35.63;;
67308;Laerm;57662;51.436;5.978;2022-08-06T00:46:53;34.06;32.95;35.54;;
67308;Laerm;57662;51.436;5.978;2022-08-06T00:47:03;34.40;33.04;35.68;;
67308;Laerm;57662;51.436;5.978;2022-08-06T00:47:14;34.50;32.97;35.87;;
67308;Laerm;57662;51.436;5.978;2022-08-06T00:47:24;34.34;32.98;35.50;;
67308;Laerm;57662;51.436;5.978;2022-08-06T00:47:34;34.17;33.06;35.62;;
67308;Laerm;57662;51.436;5.978;2022-08-06T00:47:45;34.27;32.99;35.67;;
67308;Laerm;57662;51.436;5.978;2022-08-06T00:47:55;34.30;33.07;35.45;;
67308;Laerm;57662;51.436;5.978;2022-08-06T00:48:05;34.10;32.74;35.49;;
67308;Laerm;57662;51.436;5.978;2022-08-06T00:48:15;34.14;32.78;41.95;;
67308;Laerm;57662;51.436;5.978;2022-08-06T00:48:26;34.06;32.82;35.45;;
67308;Laerm;57662;51.436;5.978;2022-08-06T00:48:36;34.12;32.96;35.45;;
67308;Laerm;57662;51.436;5.978;2022-08-06T00:48:46;34.04;32.41;35.47;;
67308;Laerm;57662;51.436;5.978;2022-08-06T00:48:57;34.04;32.31;35.37;;
67308;Laerm;57662;51.436;5.978;2022-08-06T00:49:07;33.87;32.48;35.10;;
67308;Laerm;57662;51.436;5.978;2022-08-06T00:49:18;33.94;32.49;35.36;;
67308;Laerm;57662;51.436;5.978;2022-08-06T00:49:29;33.96;32.52;35.05;;
67308;Laerm;57662;51.436;5.978;2022-08-06T00:49:39;33.92;32.55;35.36;;
67308;Laerm;57662;51.436;5.978;2022-08-06T00:49:49;33.94;32.86;35.11;;
67308;Laerm;57662;51.436;5.978;2022-08-06T00:49:59;34.14;33.08;35.51;;
67308;Laerm;57662;51.436;5.978;2022-08-06T00:50:10;34.14;32.87;35.54;;
67308;Laerm;57662;51.436;5.978;2022-08-06T00:50:20;34.21;32.95;35.34;;
67308;Laerm;57662;51.436;5.978;2022-08-06T00:50:31;33.92;32.79;35.14;;
67308;Laerm;57662;51.436;5.978;2022-08-06T00:50:41;34.04;32.60;35.43;;
67308;Laerm;57662;51.436;5.978;2022-08-06T00:50:51;33.94;32.58;35.02;;
67308;Laerm;57662;51.436;5.978;2022-08-06T00:51:02;33.90;32.71;35.51;;
67308;Laerm;57662;51.436;5.978;2022-08-06T00:51:12;33.93;32.49;35.27;;
67308;Laerm;57662;51.436;5.978;2022-08-06T00:51:22;34.04;32.80;35.42;;
67308;Laerm;57662;51.436;5.978;2022-08-06T00:51:33;34.08;32.27;35.17;;
67308;Laerm;57662;51.436;5.978;2022-08-06T00:51:45;34.06;32.61;35.25;;
67308;Laerm;57662;51.436;5.978;2022-08-06T00:51:55;33.91;32.49;35.30;;
67308;Laerm;57662;51.436;5.978;2022-08-06T00:52:05;34.05;32.83;35.61;;
67308;Laerm;57662;51.436;5.978;2022-08-06T00:52:16;33.95;32.59;35.33;;
67308;Laerm;57662;51.436;5.978;2022-08-06T00:52:26;33.94;32.67;35.52;;
67308;Laerm;57662;51.436;5.978;2022-08-06T00:52:36;34.16;33.06;35.49;;
67308;Laerm;57662;51.436;5.978;2022-08-06T00:52:46;34.18;32.97;35.41;;
67308;Laerm;57662;51.436;5.978;2022-08-06T00:52:57;34.24;32.59;35.58;;
67308;Laerm;57662;51.436;5.978;2022-08-06T00:53:08;34.20;32.82;35.45;;
67308;Laerm;57662;51.436;5.978;2022-08-06T00:53:19;33.94;32.16;35.30;;
67308;Laerm;57662;51.436;5.978;2022-08-06T00:53:29;34.21;32.88;35.77;;
67308;Laerm;57662;51.436;5.978;2022-08-06T00:53:40;34.38;32.78;36.14;;
67308;Laerm;57662;51.436;5.978;2022-08-06T00:53:50;34.19;32.81;35.57;;
67308;Laerm;57662;51.436;5.978;2022-08-06T00:54:01;34.74;33.35;37.26;;
67308;Laerm;57662;51.436;5.978;2022-08-06T00:54:11;34.50;33.12;36.35;;
67308;Laerm;57662;51.436;5.978;2022-08-06T00:54:21;34.89;33.00;36.71;;
67308;Laerm;57662;51.436;5.978;2022-08-06T00:54:32;34.92;33.48;36.55;;
67308;Laerm;57662;51.436;5.978;2022-08-06T00:54:42;34.70;33.29;35.88;;
67308;Laerm;57662;51.436;5.978;2022-08-06T00:54:52;34.35;32.49;35.65;;
67308;Laerm;57662;51.436;5.978;2022-08-06T00:55:03;34.80;33.29;36.85;;
67308;Laerm;57662;51.436;5.978;2022-08-06T00:55:13;34.55;32.97;36.67;;
67308;Laerm;57662;51.436;5.978;2022-08-06T00:55:23;34.22;32.85;36.31;;
67308;Laerm;57662;51.436;5.978;2022-08-06T00:55:34;34.25;32.49;35.82;;
67308;Laerm;57662;51.436;5.978;2022-08-06T00:55:44;34.59;32.69;36.48;;
67308;Laerm;57662;51.436;5.978;2022-08-06T00:55:54;34.65;33.31;36.87;;
67308;Laerm;57662;51.436;5.978;2022-08-06T00:56:04;34.37;33.10;35.72;;
67308;Laerm;57662;51.436;5.978;2022-08-06T00:56:15;34.33;33.10;35.72;;
67308;Laerm;57662;51.436;5.978;2022-08-06T00:56:25;35.53;33.56;38.25;;
67308;Laerm;57662;51.436;5.978;2022-08-06T00:56:35;34.78;33.30;37.67;;
67308;Laerm;57662;51.436;5.978;2022-08-06T00:56:45;34.75;33.30;36.35;;
67308;Laerm;57662;51.436;5.978;2022-08-06T00:56:56;34.19;32.98;36.19;;
67308;Laerm;57662;51.436;5.978;2022-08-06T00:57:06;34.16;33.06;35.50;;
67308;Laerm;57662;51.436;5.978;2022-08-06T00:57:16;34.09;32.65;35.67;;
67308;Laerm;57662;51.436;5.978;2022-08-06T00:57:26;34.38;33.00;35.88;;
67308;Laerm;57662;51.436;5.978;2022-08-06T00:57:37;34.52;33.10;35.54;;
67308;Laerm;57662;51.436;5.978;2022-08-06T00:57:47;34.25;33.03;35.44;;
67308;Laerm;57662;51.436;5.978;2022-08-06T00:57:58;34.80;33.12;37.27;;
67308;Laerm;57662;51.436;5.978;2022-08-06T00:58:08;35.06;33.87;36.49;;
67308;Laerm;57662;51.436;5.978;2022-08-06T00:58:18;35.46;33.99;37.65;;
67308;Laerm;57662;51.436;5.978;2022-08-06T00:58:28;35.15;33.80;36.90;;
67308;Laerm;57662;51.436;5.978;2022-08-06T00:58:39;34.91;33.27;36.77;;